createdAt,value
2023-04-27T00:01:34.820Z,99927.66
2023-04-27T00:04:14.506Z,99922.97
2023-04-27T00:06:50.067Z,99923.78
2023-04-27T00:09:28.096Z,99928.09
2023-04-27T00:12:03.498Z,99926.03
2023-04-27T00:14:35.159Z,99931.72
2023-04-27T00:17:07.922Z,99921.06
2023-04-27T00:19:34.982Z,99924.97
2023-04-27T00:22:20.892Z,99920.53
2023-04-27T00:24:50.916Z,99927.47
2023-04-27T00:27:25.734Z,99921.19
2023-04-27T00:29:58.843Z,99936.63
2023-04-27T00:32:36.000Z,99937.56
2023-04-27T00:35:15.594Z,99932.38
2023-04-27T00:37:54.205Z,99931.13
2023-04-27T00:40:35.029Z,99936.66
2023-04-27T00:43:04.170Z,99934.75
2023-04-27T00:45:43.650Z,99936.97
2023-04-27T00:48:16.397Z,99941.59
2023-04-27T00:50:54.108Z,99936.22
2023-04-27T00:53:31.587Z,99928.69
2023-04-27T00:56:21.887Z,99931.69
2023-04-27T00:59:03.021Z,99934.34
2023-04-27T01:01:43.892Z,99932.22
2023-04-27T01:04:23.286Z,99937.81
2023-04-27T01:06:57.143Z,99930.94
2023-04-27T01:09:32.642Z,99934.88
2023-04-27T01:12:12.882Z,99938.22
2023-04-27T01:14:46.008Z,99949.16
2023-04-27T01:17:22.114Z,99950.84
2023-04-27T01:20:02.431Z,99939.53
2023-04-27T01:22:39.946Z,99936.19
2023-04-27T01:25:12.860Z,99951.59
2023-04-27T01:27:56.541Z,99947.59
2023-04-27T01:30:30.863Z,99952.06
2023-04-27T01:33:04.650Z,99954.44
2023-04-27T01:35:46.921Z,99953.22
2023-04-27T01:38:22.395Z,99960.72
2023-04-27T01:40:50.061Z,99952.44
2023-04-27T01:43:28.858Z,99956.47
2023-04-27T01:46:05.070Z,99957.22
2023-04-27T01:48:45.978Z,99960.72
2023-04-27T01:51:16.285Z,99956.53
2023-04-27T01:53:53.443Z,99956.25
2023-04-27T01:56:25.063Z,99956.13
2023-04-27T01:58:57.727Z,99959.03
2023-04-27T02:01:40.968Z,99958.38
2023-04-27T02:04:13.378Z,99959.44
2023-04-27T02:06:51.194Z,99966.72
2023-04-27T02:09:27.778Z,99962.31
2023-04-27T02:12:00.658Z,99961.75
2023-04-27T02:14:33.804Z,99960.69
2023-04-27T02:17:09.031Z,99976.63
2023-04-27T02:19:41.249Z,99974.97
2023-04-27T02:22:19.692Z,99978.16
2023-04-27T02:25:05.767Z,99975.81
2023-04-27T02:27:32.736Z,99977.25
2023-04-27T02:30:14.970Z,99969.97
2023-04-27T02:32:55.390Z,99977.69
2023-04-27T02:35:33.687Z,99977.16
2023-04-27T02:38:06.878Z,99973.94
2023-04-27T02:40:41.089Z,99975.94
2023-04-27T02:43:13.884Z,99974.00
2023-04-27T02:45:49.119Z,99978.19
2023-04-27T02:48:19.140Z,99982.38
2023-04-27T02:50:51.895Z,99980.47
2023-04-27T02:53:18.945Z,99989.25
2023-04-27T02:55:54.139Z,99996.66
2023-04-27T02:58:21.473Z,99990.81
2023-04-27T03:00:59.805Z,99992.66
2023-04-27T03:03:32.650Z,99988.75
2023-04-27T03:06:04.438Z,99994.34
2023-04-27T03:08:44.027Z,99999.38
2023-04-27T03:11:24.626Z,99992.53
2023-04-27T03:14:02.052Z,99991.25
2023-04-27T03:16:29.911Z,99997.31
2023-04-27T03:18:59.152Z,99999.56
2023-04-27T03:21:31.297Z,100006.50
2023-04-27T03:24:03.674Z,100005.41
2023-04-27T03:26:39.296Z,100004.28
2023-04-27T03:29:12.031Z,100000.38
2023-04-27T03:31:44.909Z,100010.19
2023-04-27T03:34:14.857Z,100011.00
2023-04-27T03:36:57.570Z,100013.66
2023-04-27T03:39:34.864Z,100012.84
2023-04-27T03:42:12.902Z,100015.63
2023-04-27T03:44:50.915Z,100024.72
2023-04-27T03:47:25.898Z,100028.38
2023-04-27T03:50:13.951Z,100033.09
2023-04-27T03:52:43.882Z,100030.19
2023-04-27T03:55:19.498Z,100032.84
2023-04-27T03:57:46.884Z,100041.22
2023-04-27T04:00:18.512Z,100043.13
2023-04-27T04:02:52.932Z,100036.00
2023-04-27T04:05:30.599Z,100033.06
2023-04-27T04:08:06.415Z,100042.03
2023-04-27T04:10:44.484Z,100038.25
2023-04-27T04:13:14.039Z,100043.69
2023-04-27T04:15:49.239Z,100050.84
2023-04-27T04:18:25.069Z,100051.25
2023-04-27T04:20:57.663Z,100059.06
2023-04-27T04:23:30.861Z,100058.72
2023-04-27T04:26:05.840Z,100063.06
2023-04-27T04:28:46.309Z,100056.69
2023-04-27T04:31:18.762Z,100064.09
2023-04-27T04:34:00.253Z,100061.09
2023-04-27T04:36:38.562Z,100074.09
2023-04-27T04:39:07.668Z,100078.13
2023-04-27T04:41:38.842Z,100072.56
2023-04-27T04:44:11.055Z,100080.41
2023-04-27T04:46:43.138Z,100075.78
2023-04-27T04:49:18.615Z,100080.22
2023-04-27T04:51:56.933Z,100079.19
2023-04-27T04:54:31.683Z,100081.16
2023-04-27T04:57:04.713Z,100081.66
2023-04-27T04:59:42.867Z,100081.69
2023-04-27T05:02:20.885Z,100084.97
2023-04-27T05:07:26.953Z,100081.44
2023-04-27T05:09:54.094Z,100088.94
2023-04-27T05:12:28.607Z,100083.59
2023-04-27T05:15:01.153Z,100089.69
2023-04-27T05:17:39.092Z,100089.09
2023-04-27T05:20:15.965Z,100099.41
2023-04-27T05:23:01.439Z,100100.28
2023-04-27T05:25:40.766Z,100103.00
2023-04-27T05:28:20.036Z,100105.88
2023-04-27T05:30:57.167Z,100109.63
2023-04-27T05:33:47.853Z,100107.97
2023-04-27T05:36:23.299Z,100095.84
2023-04-27T05:38:57.812Z,100111.31
2023-04-27T05:41:36.173Z,100118.56
2023-04-27T05:44:17.134Z,100117.31
2023-04-27T05:46:56.311Z,100115.03
2023-04-27T05:49:37.878Z,100121.31
2023-04-27T05:52:17.860Z,100119.66
2023-04-27T05:54:58.480Z,100122.91
2023-04-27T05:57:42.366Z,100124.88
2023-04-27T06:00:22.612Z,100127.88
2023-04-27T06:03:00.374Z,100125.88
2023-04-27T06:05:41.942Z,100129.19
2023-04-27T06:08:25.304Z,100137.06
2023-04-27T06:10:58.202Z,100142.03
2023-04-27T06:13:30.505Z,100137.97
2023-04-27T06:16:11.808Z,100145.44
2023-04-27T06:18:50.446Z,100138.78
2023-04-27T06:21:32.115Z,100139.91
2023-04-27T06:24:19.228Z,100141.03
2023-04-27T06:27:03.271Z,100141.28
2023-04-27T06:29:36.016Z,100144.91
2023-04-27T06:32:17.874Z,100143.47
2023-04-27T06:35:01.018Z,100150.81
2023-04-27T06:37:38.888Z,100148.28
2023-04-27T06:40:12.082Z,100156.56
2023-04-27T06:42:58.503Z,100159.09
2023-04-27T06:45:44.796Z,100152.25
2023-04-27T06:48:25.651Z,100162.94
2023-04-27T06:51:08.147Z,100162.13
2023-04-27T06:53:38.184Z,100151.44
2023-04-27T06:56:23.643Z,100164.25
2023-04-27T06:59:08.147Z,100161.53
2023-04-27T07:01:40.883Z,100164.78
2023-04-27T07:04:26.905Z,100166.75
2023-04-27T07:07:09.603Z,100167.34
2023-04-27T07:09:47.788Z,100171.25
2023-04-27T07:12:23.647Z,100174.88
2023-04-27T07:15:04.392Z,100174.44
2023-04-27T07:17:44.751Z,100172.22
2023-04-27T07:20:27.377Z,100174.25
2023-04-27T07:23:09.473Z,100169.06
2023-04-27T07:25:52.502Z,100165.97
2023-04-27T07:28:30.733Z,100178.41
2023-04-27T07:31:09.811Z,100172.53
2023-04-27T07:33:48.078Z,100172.47
2023-04-27T07:36:34.467Z,100181.75
2023-04-27T07:39:16.948Z,100174.50
2023-04-27T07:42:05.852Z,100177.91
2023-04-27T07:44:44.277Z,100178.28
2023-04-27T07:47:19.652Z,100178.88
2023-04-27T07:50:01.002Z,100170.53
2023-04-27T07:52:41.625Z,100169.91
2023-04-27T07:55:31.853Z,100169.94
2023-04-27T07:58:12.821Z,100163.03
2023-04-27T08:00:56.184Z,100163.78
2023-04-27T08:03:35.160Z,100168.22
2023-04-27T08:06:08.306Z,100170.47
2023-04-27T08:08:49.800Z,100166.47
2023-04-27T08:11:19.666Z,100162.63
2023-04-27T08:13:59.887Z,100158.03
2023-04-27T08:16:33.145Z,100167.38
2023-04-27T08:19:05.445Z,100159.91
2023-04-27T08:21:47.288Z,100165.84
2023-04-27T08:24:26.129Z,100160.19
2023-04-27T08:27:11.807Z,100164.81
2023-04-27T08:30:02.916Z,100165.44
2023-04-27T08:32:44.658Z,100163.31
2023-04-27T08:35:23.082Z,100166.41
2023-04-27T08:38:09.649Z,100173.72
2023-04-27T08:40:54.745Z,100174.66
2023-04-27T08:43:45.233Z,100169.00
2023-04-27T08:46:27.230Z,100168.34
2023-04-27T08:49:16.509Z,100171.91
2023-04-27T08:51:57.573Z,100169.81
2023-04-27T08:54:36.666Z,100163.66
2023-04-27T08:57:23.526Z,100160.78
2023-04-27T09:00:23.533Z,100160.19
2023-04-27T09:03:06.702Z,100160.63
2023-04-27T09:06:03.424Z,100161.03
2023-04-27T09:08:52.861Z,100166.09
2023-04-27T09:11:41.554Z,100163.25
2023-04-27T09:14:31.346Z,100161.91
2023-04-27T09:17:18.044Z,100153.97
2023-04-27T09:19:50.452Z,100151.41
2023-04-27T09:22:45.225Z,100148.44
2023-04-27T09:25:36.017Z,100156.75
2023-04-27T09:28:16.846Z,100151.75
2023-04-27T09:31:05.148Z,100147.16
2023-04-27T09:33:48.824Z,100150.66
2023-04-27T09:36:30.980Z,100146.53
2023-04-27T09:39:12.560Z,100135.38
2023-04-27T09:41:55.820Z,100143.94
2023-04-27T09:44:43.767Z,100134.50
2023-04-27T09:47:21.874Z,100142.53
2023-04-27T09:50:07.139Z,100143.47
2023-04-27T09:52:45.861Z,100138.28
2023-04-27T09:55:41.936Z,100136.66
2023-04-27T09:58:38.405Z,100122.66
2023-04-27T10:01:24.265Z,100121.34
2023-04-27T10:04:35.089Z,100115.66
2023-04-27T10:07:13.823Z,100109.13
2023-04-27T10:10:00.240Z,100112.63
2023-04-27T10:12:41.650Z,100108.63
2023-04-27T10:15:29.492Z,100104.94
2023-04-27T10:18:11.545Z,100116.09
2023-04-27T10:21:12.249Z,100117.00
2023-04-27T10:23:57.368Z,100115.28
2023-04-27T10:26:49.818Z,100129.72
2023-04-27T10:29:40.363Z,100121.50
2023-04-27T10:32:32.870Z,100120.94
2023-04-27T10:35:22.410Z,100120.88
2023-04-27T10:38:28.310Z,100114.53
2023-04-27T10:41:12.613Z,100111.34
2023-04-27T10:43:50.271Z,100116.03
2023-04-27T10:46:28.942Z,100106.66
2023-04-27T10:49:14.977Z,100108.56
2023-04-27T10:52:05.251Z,100103.97
2023-04-27T10:54:49.811Z,100118.06
2023-04-27T10:57:31.542Z,100103.53
2023-04-27T11:00:21.225Z,100108.81
2023-04-27T11:03:00.794Z,100106.59
2023-04-27T11:05:46.721Z,100102.31
2023-04-27T11:08:31.831Z,100098.88
2023-04-27T11:11:09.764Z,100109.31
2023-04-27T11:13:49.538Z,100105.78
2023-04-27T11:16:33.107Z,100106.47
2023-04-27T11:19:14.153Z,100095.66
2023-04-27T11:21:53.156Z,100097.94
2023-04-27T11:24:29.383Z,100084.69
2023-04-27T11:27:07.517Z,100093.31
2023-04-27T11:29:51.815Z,100092.84
2023-04-27T11:32:27.120Z,100082.97
2023-04-27T11:35:07.474Z,100088.47
2023-04-27T11:37:58.342Z,100098.75
2023-04-27T11:40:45.557Z,100092.03
2023-04-27T11:43:25.677Z,100091.50
2023-04-27T11:46:17.913Z,100087.28
2023-04-27T11:49:16.973Z,100083.72
2023-04-27T11:51:59.252Z,100080.88
2023-04-27T11:54:56.464Z,100084.13
2023-04-27T11:57:36.168Z,100084.22
2023-04-27T12:00:15.336Z,100089.28
2023-04-27T12:03:04.934Z,100091.66
2023-04-27T12:05:52.976Z,100091.97
2023-04-27T12:08:31.168Z,100096.69
2023-04-27T12:11:11.971Z,100089.53
2023-04-27T12:14:04.288Z,100085.56
2023-04-27T12:16:44.498Z,100081.47
2023-04-27T12:19:34.798Z,100085.97
2023-04-27T12:22:10.843Z,100079.53
2023-04-27T12:24:48.596Z,100076.03
2023-04-27T12:27:32.833Z,100080.00
2023-04-27T12:30:14.630Z,100080.19
2023-04-27T12:32:52.978Z,100076.41
2023-04-27T12:35:32.101Z,100079.16
2023-04-27T12:38:07.256Z,100077.09
2023-04-27T12:40:42.897Z,100077.16
2023-04-27T12:43:23.619Z,100072.47
2023-04-27T12:45:58.913Z,100079.59
2023-04-27T12:48:36.565Z,100074.31
2023-04-27T12:51:17.741Z,100081.47
2023-04-27T12:54:02.769Z,100082.13
2023-04-27T12:56:44.098Z,100084.19
2023-04-27T12:59:24.918Z,100080.91
2023-04-27T13:02:06.130Z,100082.34
2023-04-27T13:04:45.053Z,100077.94
2023-04-27T13:07:23.348Z,100071.13
2023-04-27T13:10:07.935Z,100071.81
2023-04-27T13:12:42.463Z,100070.78
2023-04-27T13:15:20.216Z,100074.63
2023-04-27T13:18:00.396Z,100064.41
2023-04-27T13:20:42.939Z,100075.50
2023-04-27T13:23:20.564Z,100077.22
2023-04-27T13:26:04.166Z,100076.66
2023-04-27T13:28:39.162Z,100071.91
2023-04-27T13:31:22.946Z,100067.53
2023-04-27T13:33:58.767Z,100069.16
2023-04-27T13:36:28.966Z,100071.34
2023-04-27T13:39:12.054Z,100061.94
2023-04-27T13:41:48.879Z,100067.56
2023-04-27T13:44:29.639Z,100065.53
2023-04-27T13:47:11.372Z,100060.34
2023-04-27T13:49:49.147Z,100060.47
2023-04-27T13:52:27.800Z,100060.88
2023-04-27T13:55:03.931Z,100062.34
2023-04-27T13:57:47.822Z,100061.41
2023-04-27T14:00:45.695Z,100061.44
2023-04-27T14:03:23.584Z,100064.38
2023-04-27T14:06:01.929Z,100062.47
2023-04-27T14:08:41.982Z,100056.53
2023-04-27T14:11:23.469Z,100067.00
2023-04-27T14:13:58.676Z,100069.59
2023-04-27T14:16:39.964Z,100070.13
2023-04-27T14:19:18.774Z,100077.09
2023-04-27T14:21:59.611Z,100072.38
2023-04-27T14:24:41.256Z,100070.28
2023-04-27T14:27:19.806Z,100073.72
2023-04-27T14:29:58.417Z,100066.69
2023-04-27T14:32:45.341Z,100074.88
2023-04-27T14:35:23.966Z,100069.34
2023-04-27T14:38:11.323Z,100066.25
2023-04-27T14:40:57.750Z,100075.56
2023-04-27T14:43:40.447Z,100071.84
2023-04-27T14:46:22.396Z,100076.28
2023-04-27T14:49:07.762Z,100077.03
2023-04-27T14:51:51.371Z,100073.25
2023-04-27T14:54:29.644Z,100068.41
2023-04-27T14:57:13.217Z,100068.22
2023-04-27T14:59:55.761Z,100079.44
2023-04-27T15:02:36.997Z,100074.66
2023-04-27T15:05:17.783Z,100071.06
2023-04-27T15:07:55.072Z,100078.81
2023-04-27T15:10:35.521Z,100075.84
2023-04-27T15:13:16.253Z,100078.69
2023-04-27T15:15:47.630Z,100074.69
2023-04-27T15:18:23.486Z,100070.91
2023-04-27T15:21:04.375Z,100066.88
2023-04-27T15:23:38.075Z,100076.78
2023-04-27T15:26:23.446Z,100080.25
2023-04-27T15:29:02.562Z,100082.16
2023-04-27T15:31:43.552Z,100073.59
2023-04-27T15:34:22.372Z,100080.06
2023-04-27T15:37:02.858Z,100072.25
2023-04-27T15:39:41.277Z,100081.81
2023-04-27T15:42:16.637Z,100084.34
2023-04-27T15:45:08.021Z,100078.03
2023-04-27T15:47:41.703Z,100080.44
2023-04-27T15:50:18.084Z,100074.38
2023-04-27T15:53:05.152Z,100077.31
2023-04-27T15:55:42.303Z,100072.72
2023-04-27T15:58:20.034Z,100078.97
2023-04-27T16:00:56.856Z,100086.03
2023-04-27T16:03:33.511Z,100086.00
2023-04-27T16:06:06.472Z,100081.31
2023-04-27T16:08:49.694Z,100084.03
2023-04-27T16:11:29.958Z,100067.69
2023-04-27T16:14:08.214Z,100077.09
2023-04-27T16:16:46.959Z,100081.31
2023-04-27T16:19:30.487Z,100073.47
2023-04-27T16:22:10.947Z,100093.66
2023-04-27T16:24:43.582Z,100089.34
2023-04-27T16:27:28.053Z,100089.84
2023-04-27T16:30:06.939Z,100084.41
2023-04-27T16:32:47.807Z,100086.19
2023-04-27T16:35:19.897Z,100083.22
2023-04-27T16:37:58.862Z,100094.38
2023-04-27T16:40:32.274Z,100093.31
2023-04-27T16:43:05.064Z,100096.56
2023-04-27T16:45:47.108Z,100096.25
2023-04-27T16:48:28.380Z,100095.84
2023-04-27T16:51:13.623Z,100100.41
2023-04-27T16:53:49.339Z,100098.31
2023-04-27T16:56:33.832Z,100104.94
2023-04-27T16:59:07.694Z,100095.22
2023-04-27T17:01:40.554Z,100109.25
2023-04-27T17:04:19.026Z,100099.44
2023-04-27T17:07:02.552Z,100104.25
2023-04-27T17:09:45.702Z,100109.50
2023-04-27T17:12:21.130Z,100111.34
2023-04-27T17:15:02.164Z,100108.66
2023-04-27T17:17:46.896Z,100104.75
2023-04-27T17:20:22.893Z,100104.13
2023-04-27T17:23:08.912Z,100108.03
2023-04-27T17:25:51.001Z,100102.59
2023-04-27T17:28:29.914Z,100106.81
2023-04-27T17:31:05.477Z,100104.94
2023-04-27T17:33:46.737Z,100100.97
2023-04-27T17:36:19.367Z,100101.81
2023-04-27T17:39:01.472Z,100113.66
2023-04-27T17:41:37.192Z,100116.94
2023-04-27T17:44:12.101Z,100122.19
2023-04-27T17:46:54.958Z,100122.25
2023-04-27T17:49:33.693Z,100116.41
2023-04-27T17:52:11.331Z,100125.53
2023-04-27T17:54:41.383Z,100130.00
2023-04-27T17:57:22.236Z,100131.91
2023-04-27T18:00:06.427Z,100137.59
2023-04-27T18:02:52.046Z,100138.69
2023-04-27T18:05:24.282Z,100136.28
2023-04-27T18:08:06.790Z,100142.34
2023-04-27T18:10:41.980Z,100149.19
2023-04-27T18:13:17.321Z,100151.06
2023-04-27T18:15:55.985Z,100150.00
2023-04-27T18:18:36.385Z,100150.84
2023-04-27T18:21:26.756Z,100155.38
2023-04-27T18:24:05.587Z,100159.47
2023-04-27T18:26:41.600Z,100162.31
2023-04-27T18:29:24.207Z,100159.50
2023-04-27T18:31:56.694Z,100166.69
2023-04-27T18:34:39.845Z,100166.91
2023-04-27T18:37:18.218Z,100167.41
2023-04-27T18:39:55.847Z,100172.75
2023-04-27T18:42:46.249Z,100180.94
2023-04-27T18:45:29.012Z,100172.84
2023-04-27T18:48:07.944Z,100182.66
2023-04-27T18:50:40.766Z,100186.53
2023-04-27T18:53:20.606Z,100188.53
2023-04-27T18:55:56.549Z,100185.97
2023-04-27T18:58:40.328Z,100178.66
2023-04-27T19:01:20.017Z,100185.75
2023-04-27T19:04:02.554Z,100187.00
2023-04-27T19:06:38.557Z,100183.78
2023-04-27T19:09:19.346Z,100196.25
2023-04-27T19:12:05.680Z,100191.16
2023-04-27T19:14:44.545Z,100197.38
2023-04-27T19:17:26.281Z,100199.16
2023-04-27T19:20:08.843Z,100200.53
2023-04-27T19:22:52.853Z,100197.75
2023-04-27T19:25:34.773Z,100209.88
2023-04-27T19:28:13.245Z,100195.53
2023-04-27T19:30:45.617Z,100202.38
2023-04-27T19:33:20.902Z,100200.69
2023-04-27T19:35:58.870Z,100207.13
2023-04-27T19:38:42.094Z,100200.84
2023-04-27T19:41:24.793Z,100201.63
2023-04-27T19:44:05.528Z,100206.50
2023-04-27T19:46:42.645Z,100211.78
2023-04-27T19:49:20.922Z,100214.16
2023-04-27T19:51:53.340Z,100205.41
2023-04-27T19:54:33.894Z,100209.16
2023-04-27T19:57:21.346Z,100201.00
2023-04-27T19:59:59.145Z,100202.44
2023-04-27T20:02:37.598Z,100206.28
2023-04-27T20:05:22.263Z,100198.97
2023-04-27T20:08:03.401Z,100206.88
2023-04-27T20:10:44.000Z,100212.28
2023-04-27T20:13:21.198Z,100219.16
2023-04-27T20:15:58.348Z,100209.66
2023-04-27T20:18:35.339Z,100212.50
2023-04-27T20:21:09.344Z,100219.56
2023-04-27T20:23:44.251Z,100216.22
2023-04-27T20:26:24.619Z,100222.91
2023-04-27T20:28:56.911Z,100228.16
2023-04-27T20:31:32.877Z,100224.50
2023-04-27T20:34:14.770Z,100226.00
2023-04-27T20:36:58.077Z,100226.91
2023-04-27T20:39:30.200Z,100221.09
2023-04-27T20:42:08.573Z,100224.78
2023-04-27T20:44:49.691Z,100223.44
2023-04-27T20:47:24.874Z,100225.97
2023-04-27T20:50:02.588Z,100228.13
2023-04-27T20:52:41.796Z,100227.66
2023-04-27T20:55:22.260Z,100228.16
2023-04-27T20:57:58.401Z,100226.47
2023-04-27T21:00:42.607Z,100222.16
2023-04-27T21:03:13.125Z,100224.16
2023-04-27T21:05:45.562Z,100230.50
2023-04-27T21:08:23.204Z,100225.31
2023-04-27T21:11:01.491Z,100231.84
2023-04-27T21:13:36.857Z,100229.84
2023-04-27T21:16:12.026Z,100239.03
2023-04-27T21:18:57.106Z,100238.34
2023-04-27T21:21:35.112Z,100248.34
2023-04-27T21:24:13.488Z,100248.16
2023-04-27T21:26:48.992Z,100253.22
2023-04-27T21:29:18.784Z,100252.53
2023-04-27T21:32:00.451Z,100251.53
2023-04-27T21:34:46.940Z,100249.16
2023-04-27T21:37:24.778Z,100246.16
2023-04-27T21:40:02.604Z,100251.84
2023-04-27T21:42:44.073Z,100242.13
2023-04-27T21:45:27.318Z,100249.78
2023-04-27T21:48:09.666Z,100247.78
2023-04-27T21:50:42.117Z,100249.91
2023-04-27T21:53:15.997Z,100249.41
2023-04-27T21:55:57.806Z,100254.09
2023-04-27T21:58:36.446Z,100261.59
2023-04-27T22:01:15.356Z,100261.41
2023-04-27T22:03:54.149Z,100276.94
2023-04-27T22:06:35.407Z,100274.72
2023-04-27T22:09:12.634Z,100275.84
2023-04-27T22:11:53.890Z,100272.66
2023-04-27T22:14:32.627Z,100280.63
2023-04-27T22:17:12.674Z,100280.56
2023-04-27T22:19:53.786Z,100281.03
2023-04-27T22:22:32.349Z,100286.03
2023-04-27T22:25:14.368Z,100287.53
2023-04-27T22:27:52.763Z,100282.84
2023-04-27T22:30:36.794Z,100277.69
2023-04-27T22:33:14.733Z,100282.97
2023-04-27T22:35:44.875Z,100282.44
2023-04-27T22:38:14.480Z,100289.38
2023-04-27T22:40:54.746Z,100290.44
2023-04-27T22:43:27.907Z,100287.44
2023-04-27T22:46:08.190Z,100286.28
2023-04-27T22:48:46.386Z,100283.25
2023-04-27T22:51:27.868Z,100285.56
2023-04-27T22:54:06.327Z,100289.06
2023-04-27T22:56:46.100Z,100291.66
2023-04-27T22:59:23.185Z,100294.09
2023-04-27T23:02:06.550Z,100293.97
2023-04-27T23:04:44.781Z,100296.09
2023-04-27T23:07:23.434Z,100294.56
2023-04-27T23:10:02.873Z,100300.22
2023-04-27T23:12:40.804Z,100296.84
2023-04-27T23:15:22.435Z,100296.16
2023-04-27T23:18:01.684Z,100306.31
2023-04-27T23:20:36.951Z,100299.78
2023-04-27T23:23:06.747Z,100299.06
2023-04-27T23:25:44.445Z,100299.06
2023-04-27T23:28:20.914Z,100303.72
2023-04-27T23:30:57.696Z,100294.88
2023-04-27T23:33:38.926Z,100291.16
2023-04-27T23:36:17.328Z,100283.78
2023-04-27T23:38:52.364Z,100287.41
2023-04-27T23:41:30.051Z,100288.56
2023-04-27T23:44:05.480Z,100287.19
2023-04-27T23:46:46.718Z,100286.44
2023-04-27T23:49:21.944Z,100282.47
2023-04-27T23:52:03.722Z,100292.16
2023-04-27T23:54:33.758Z,100289.47
2023-04-27T23:57:11.705Z,100285.28
2023-04-27T23:59:50.280Z,100286.19
